createdAt,value
2023-01-30T00:01:26.562Z,-2.60
2023-01-30T00:03:53.922Z,-2.56
2023-01-30T00:06:21.897Z,-2.59
2023-01-30T00:08:48.939Z,-2.55
2023-01-30T00:11:19.591Z,-2.60
2023-01-30T00:13:49.109Z,-2.56
2023-01-30T00:16:17.451Z,-2.60
2023-01-30T00:18:44.806Z,-2.62
2023-01-30T00:21:14.861Z,-2.56
2023-01-30T00:40:19.207Z,-2.21
2023-01-30T00:43:04.963Z,-2.27
2023-01-30T00:45:50.527Z,-2.36
2023-01-30T00:48:17.735Z,-2.39
2023-01-30T00:50:44.599Z,-2.44
2023-01-30T00:53:13.147Z,-2.48
2023-01-30T00:55:40.516Z,-2.47
2023-01-30T00:58:07.819Z,-2.47
2023-01-30T01:00:35.115Z,-2.53
2023-01-30T01:03:02.571Z,-2.48
2023-01-30T01:05:29.551Z,-2.47
2023-01-30T01:07:56.949Z,-2.53
2023-01-30T01:10:24.313Z,-2.55
2023-01-30T01:12:55.197Z,-2.60
2023-01-30T01:15:24.505Z,-2.62
2023-01-30T01:17:51.987Z,-2.63
2023-01-30T01:20:19.919Z,-2.63
2023-01-30T01:22:50.473Z,-2.57
2023-01-30T01:25:19.608Z,-2.62
2023-01-30T01:27:47.931Z,-2.61
2023-01-30T01:30:15.005Z,-2.58
2023-01-30T01:32:42.481Z,-2.58
2023-01-30T01:35:10.034Z,-2.58
2023-01-30T01:37:37.252Z,-2.58
2023-01-30T01:40:24.308Z,-2.58
2023-01-30T01:42:52.143Z,-2.62
2023-01-30T01:45:29.758Z,-2.60
2023-01-30T01:48:10.153Z,-2.59
2023-01-30T01:50:42.929Z,-2.59
2023-01-30T01:53:13.061Z,-2.57
2023-01-30T01:55:42.110Z,-2.58
2023-01-30T01:58:15.651Z,-2.61
2023-01-30T02:12:31.492Z,-2.19
2023-01-30T02:15:00.514Z,-2.26
2023-01-30T02:17:27.580Z,-2.35
2023-01-30T02:20:08.101Z,-2.43
2023-01-30T02:22:56.384Z,-2.47
2023-01-30T02:25:35.393Z,-2.53
2023-01-30T02:28:17.268Z,-2.53
2023-01-30T02:30:53.479Z,-2.60
2023-01-30T02:33:26.525Z,-2.59
2023-01-30T02:36:12.187Z,-2.55
2023-01-30T02:38:50.027Z,-2.51
2023-01-30T02:41:55.627Z,-2.57
2023-01-30T02:44:22.465Z,-2.57
2023-01-30T02:47:06.600Z,-2.58
2023-01-30T03:02:29.367Z,-2.13
2023-01-30T03:05:53.475Z,-2.21
2023-01-30T03:08:34.436Z,-2.23
2023-01-30T03:11:11.554Z,-2.31
2023-01-30T03:14:00.644Z,-2.35
2023-01-30T03:16:38.978Z,-2.41
2023-01-30T03:19:12.178Z,-2.40
2023-01-30T03:21:44.750Z,-2.41
2023-01-30T03:24:15.200Z,-2.43
2023-01-30T03:26:52.125Z,-2.39
2023-01-30T03:29:19.029Z,-2.42
2023-01-30T03:31:46.448Z,-2.43
2023-01-30T03:34:13.428Z,-2.41
2023-01-30T03:36:40.867Z,-2.43
2023-01-30T03:39:08.491Z,-2.42
2023-01-30T03:41:35.739Z,-2.44
2023-01-30T03:44:02.784Z,-2.46
2023-01-30T03:46:30.044Z,-2.47
2023-01-30T03:48:57.016Z,-2.42
2023-01-30T03:51:24.215Z,-2.41
2023-01-30T03:53:51.228Z,-2.42
2023-01-30T03:56:18.446Z,-2.38
2023-01-30T03:58:45.402Z,-2.40
2023-01-30T04:01:12.832Z,-2.40
2023-01-30T04:03:39.810Z,-2.39
2023-01-30T04:06:07.288Z,-2.41
2023-01-30T04:08:34.258Z,-2.38
2023-01-30T04:11:01.453Z,-2.42
2023-01-30T04:13:28.374Z,-2.42
2023-01-30T04:16:16.110Z,-2.46
2023-01-30T04:18:43.061Z,-2.46
2023-01-30T04:21:10.442Z,-2.40
2023-01-30T04:23:37.400Z,-2.33
2023-01-30T04:26:05.311Z,-2.35
2023-01-30T04:28:32.616Z,-2.32
2023-01-30T04:31:00.054Z,-2.32
2023-01-30T04:33:27.203Z,-2.31
2023-01-30T04:35:59.464Z,-2.35
2023-01-30T04:38:27.972Z,-2.37
2023-01-30T04:40:57.285Z,-2.36
2023-01-30T04:43:25.053Z,-2.40
2023-01-30T04:45:52.991Z,-2.44
2023-01-30T04:48:21.402Z,-2.47
2023-01-30T04:50:49.679Z,-2.53
2023-01-30T04:53:17.837Z,-2.53
2023-01-30T04:55:45.077Z,-2.52
2023-01-30T04:58:12.303Z,-2.52
2023-01-30T05:00:39.533Z,-2.52
2023-01-30T05:03:07.293Z,-2.52
2023-01-30T05:05:34.512Z,-2.59
2023-01-30T05:08:01.780Z,-2.59
2023-01-30T05:10:29.173Z,-2.58
2023-01-30T05:12:56.080Z,-2.54
2023-01-30T05:15:23.341Z,-2.57
2023-01-30T05:17:50.276Z,-2.54
2023-01-30T05:20:17.809Z,-2.51
2023-01-30T05:22:44.933Z,-2.49
2023-01-30T05:25:12.237Z,-2.46
2023-01-30T05:27:39.180Z,-2.51
2023-01-30T05:30:07.102Z,-2.45
2023-01-30T05:32:34.188Z,-2.45
2023-01-30T05:35:01.582Z,-2.46
2023-01-30T05:37:28.478Z,-2.38
2023-01-30T05:39:55.713Z,-2.35
2023-01-30T05:42:22.598Z,-2.32
2023-01-30T05:44:49.810Z,-2.33
2023-01-30T05:47:16.690Z,-2.33
2023-01-30T05:49:43.826Z,-2.30
2023-01-30T05:52:10.729Z,-2.30
2023-01-30T05:54:37.968Z,-2.31
2023-01-30T05:57:05.179Z,-2.30
2023-01-30T05:59:32.318Z,-2.30
2023-01-30T06:01:59.204Z,-2.26
2023-01-30T06:04:26.431Z,-2.21
2023-01-30T06:06:53.371Z,-2.22
2023-01-30T06:09:20.549Z,-2.26
2023-01-30T06:11:47.454Z,-2.27
2023-01-30T06:14:14.675Z,-2.23
2023-01-30T06:16:41.608Z,-2.24
2023-01-30T06:19:09.181Z,-2.21
2023-01-30T06:21:36.065Z,-2.22
2023-01-30T06:24:03.701Z,-2.12
2023-01-30T06:26:30.716Z,-2.13
2023-01-30T06:28:58.086Z,-2.10
2023-01-30T06:31:25.141Z,-2.09
2023-01-30T06:33:52.456Z,-2.07
2023-01-30T06:36:19.404Z,-2.09
2023-01-30T06:38:54.970Z,-2.06
2023-01-30T06:41:22.463Z,-2.03
2023-01-30T06:43:49.816Z,-2.03
2023-01-30T06:46:16.789Z,-2.00
2023-01-30T06:48:43.925Z,-1.98
2023-01-30T06:51:10.847Z,-1.95
2023-01-30T06:53:38.106Z,-1.92
2023-01-30T06:56:05.185Z,-1.94
2023-01-30T06:58:32.499Z,-1.93
2023-01-30T07:00:59.956Z,-1.91
2023-01-30T07:03:27.364Z,-1.85
2023-01-30T07:05:54.379Z,-1.82
2023-01-30T07:08:23.350Z,-1.79
2023-01-30T07:10:51.419Z,-1.78
2023-01-30T07:13:18.636Z,-1.73
2023-01-30T07:15:46.956Z,-1.69
2023-01-30T07:18:14.270Z,-1.71
2023-01-30T07:20:42.317Z,-1.70
2023-01-30T07:23:09.561Z,-1.67
2023-01-30T07:25:36.609Z,-1.62
2023-01-30T07:28:04.129Z,-1.58
2023-01-30T07:30:33.704Z,-1.50
2023-01-30T07:33:01.101Z,-1.49
2023-01-30T07:35:30.634Z,-1.52
2023-01-30T07:37:58.621Z,-1.57
2023-01-30T07:40:26.590Z,-1.47
2023-01-30T07:43:08.745Z,-1.41
2023-01-30T07:45:41.120Z,-1.38
2023-01-30T07:48:12.092Z,-1.29
2023-01-30T07:50:39.114Z,-1.27
2023-01-30T07:53:07.751Z,-1.25
2023-01-30T07:55:35.345Z,-1.24
2023-01-30T07:58:02.999Z,-1.18
2023-01-30T08:00:30.129Z,-1.21
2023-01-30T08:02:57.426Z,-1.13
2023-01-30T08:05:24.373Z,-1.13
2023-01-30T08:07:51.747Z,-1.10
2023-01-30T08:10:19.197Z,-1.09
2023-01-30T08:12:46.716Z,-0.98
2023-01-30T08:15:13.621Z,-0.96
2023-01-30T08:17:40.878Z,-0.90
2023-01-30T08:20:08.597Z,-0.91
2023-01-30T08:22:35.821Z,-0.88
2023-01-30T08:25:02.904Z,-0.88
2023-01-30T08:27:30.163Z,-0.87
2023-01-30T08:29:57.418Z,-0.92
2023-01-30T08:32:24.664Z,-0.88
2023-01-30T08:34:51.521Z,-0.91
2023-01-30T08:37:18.676Z,-0.94
2023-01-30T08:39:45.554Z,-0.95
2023-01-30T08:42:12.714Z,-0.94
2023-01-30T08:44:39.604Z,-0.97
2023-01-30T08:47:06.756Z,-0.94
2023-01-30T08:49:33.745Z,-0.93
2023-01-30T08:52:00.957Z,-0.91
2023-01-30T08:54:27.903Z,-0.96
2023-01-30T08:56:55.128Z,-0.97
2023-01-30T08:59:22.138Z,-1.00
2023-01-30T09:01:49.352Z,-1.02
2023-01-30T09:04:16.269Z,-1.00
2023-01-30T09:06:43.407Z,-1.01
2023-01-30T09:09:10.314Z,-1.01
2023-01-30T09:11:37.526Z,-0.93
2023-01-30T09:14:04.461Z,-0.96
2023-01-30T09:16:31.706Z,-0.92
2023-01-30T09:18:58.627Z,-0.87
2023-01-30T09:21:25.793Z,-0.85
2023-01-30T09:23:52.730Z,-0.81
2023-01-30T09:26:19.978Z,-0.75
2023-01-30T09:28:46.923Z,-0.64
2023-01-30T09:31:14.139Z,-0.63
2023-01-30T09:33:41.232Z,-0.56
2023-01-30T09:36:09.048Z,-0.54
2023-01-30T09:38:36.104Z,-0.56
2023-01-30T09:41:31.846Z,-0.57
2023-01-30T09:44:33.020Z,-0.49
2023-01-30T09:47:10.829Z,-0.51
2023-01-30T09:49:46.379Z,-0.52
2023-01-30T09:52:23.473Z,-0.55
2023-01-30T09:54:54.333Z,-0.49
2023-01-30T09:57:25.021Z,-0.46
2023-01-30T10:00:05.744Z,-0.50
2023-01-30T10:03:02.171Z,-0.45
2023-01-30T10:05:55.625Z,-0.42
2023-01-30T10:08:37.398Z,-0.44
2023-01-30T10:11:29.350Z,-0.39
2023-01-30T10:14:31.951Z,-0.38
2023-01-30T10:17:20.332Z,-0.39
2023-01-30T10:19:57.467Z,-0.36
2023-01-30T10:22:42.977Z,-0.43
2023-01-30T10:25:35.245Z,-0.41
2023-01-30T10:28:16.143Z,-0.42
2023-01-30T10:30:46.438Z,-0.36
2023-01-30T10:33:25.165Z,-0.30
2023-01-30T10:35:59.978Z,-0.26
2023-01-30T10:38:39.351Z,-0.37
2023-01-30T10:41:16.205Z,-0.34
2023-01-30T10:43:48.228Z,-0.33
2023-01-30T10:46:24.637Z,-0.36
2023-01-30T10:49:39.357Z,-0.43
2023-01-30T10:52:54.793Z,-0.54
2023-01-30T10:55:39.893Z,-0.55
2023-01-30T10:58:09.907Z,-0.58
2023-01-30T11:00:46.552Z,-0.51
2023-01-30T11:03:22.329Z,-0.54
2023-01-30T11:05:53.056Z,-0.48
2023-01-30T11:08:24.047Z,-0.55
2023-01-30T11:10:52.856Z,-0.52
2023-01-30T11:13:31.671Z,-0.46
2023-01-30T11:16:04.231Z,-0.45
2023-01-30T11:21:43.645Z,-0.43
2023-01-30T11:24:20.432Z,-0.50
2023-01-30T11:26:48.687Z,-0.56
2023-01-30T11:29:25.418Z,-0.49
2023-01-30T11:31:52.976Z,-0.45
2023-01-30T11:34:22.494Z,-0.51
2023-01-30T11:36:50.516Z,-0.39
2023-01-30T11:39:21.955Z,-0.43
2023-01-30T11:41:58.581Z,-0.41
2023-01-30T11:44:27.607Z,-0.38
2023-01-30T11:46:54.912Z,-0.42
2023-01-30T11:49:49.607Z,-0.38
2023-01-30T11:52:12.437Z,-0.38
2023-01-30T11:54:45.263Z,-0.37
2023-01-30T11:57:15.908Z,-0.33
2023-01-30T11:59:53.925Z,-0.34
2023-01-30T12:02:24.712Z,-0.34
2023-01-30T12:05:07.220Z,-0.33
2023-01-30T12:07:36.927Z,-0.44
2023-01-30T12:10:20.199Z,-0.50
2023-01-30T12:12:54.094Z,-0.51
2023-01-30T12:15:35.467Z,-0.54
2023-01-30T12:18:14.264Z,-0.60
2023-01-30T12:20:53.216Z,-0.60
2023-01-30T12:24:05.259Z,-0.66
2023-01-30T12:26:44.412Z,-0.71
2023-01-30T12:29:17.519Z,-0.71
2023-01-30T12:31:58.816Z,-0.78
2023-01-30T12:34:28.260Z,-0.75
2023-01-30T12:37:17.293Z,-0.67
2023-01-30T12:40:16.197Z,-0.69
2023-01-30T12:42:53.023Z,-0.66
2023-01-30T12:45:26.302Z,-0.65
2023-01-30T12:47:59.739Z,-0.62
2023-01-30T12:50:55.700Z,-0.65
2023-01-30T12:53:41.551Z,-0.66
2023-01-30T12:56:17.521Z,-0.58
2023-01-30T12:58:55.250Z,-0.48
2023-01-30T13:01:34.073Z,-0.54
2023-01-30T13:04:01.202Z,-0.52
2023-01-30T13:06:58.476Z,-0.45
2023-01-30T13:09:44.183Z,-0.59
2023-01-30T13:12:22.430Z,-0.65
2023-01-30T13:15:14.204Z,-0.79
2023-01-30T13:18:01.421Z,-0.87
2023-01-30T13:20:41.044Z,-1.03
2023-01-30T13:23:17.011Z,-1.08
2023-01-30T13:26:05.088Z,-1.10
2023-01-30T13:28:47.560Z,-1.11
2023-01-30T13:31:22.087Z,-1.08
2023-01-30T13:33:52.756Z,-1.11
2023-01-30T13:36:25.170Z,-1.16
2023-01-30T13:39:02.981Z,-1.22
2023-01-30T13:41:35.904Z,-1.27
2023-01-30T13:44:38.125Z,-1.22
2023-01-30T13:47:39.872Z,-1.23
2023-01-30T13:50:20.962Z,-1.31
2023-01-30T13:53:34.466Z,-1.40
2023-01-30T13:56:32.884Z,-1.39
2023-01-30T13:59:37.568Z,-1.36
2023-01-30T14:02:05.147Z,-1.40
2023-01-30T14:04:44.772Z,-1.42
2023-01-30T14:07:17.652Z,-1.46
2023-01-30T14:10:10.667Z,-1.50
2023-01-30T14:12:49.727Z,-1.52
2023-01-30T14:15:17.476Z,-1.53
2023-01-30T14:18:02.588Z,-1.54
2023-01-30T14:20:43.166Z,-1.55
2023-01-30T14:23:29.960Z,-1.57
2023-01-30T14:25:57.246Z,-1.65
2023-01-30T14:28:24.082Z,-1.69
2023-01-30T14:30:52.961Z,-1.77
2023-01-30T14:33:19.920Z,-1.75
2023-01-30T14:36:10.375Z,-1.82
2023-01-30T14:38:39.667Z,-1.91
2023-01-30T14:41:09.314Z,-1.92
2023-01-30T14:43:42.130Z,-1.96
2023-01-30T14:46:29.412Z,-1.94
2023-01-30T14:49:04.402Z,-1.92
2023-01-30T14:51:40.666Z,-1.92
2023-01-30T14:54:13.450Z,-1.94
2023-01-30T14:56:54.927Z,-1.95
2023-01-30T14:59:22.111Z,-1.97
2023-01-30T15:02:08.134Z,-1.99
2023-01-30T15:04:48.443Z,-1.96
2023-01-30T15:07:23.928Z,-1.95
2023-01-30T15:09:57.494Z,-2.00
2023-01-30T15:12:30.797Z,-2.01
2023-01-30T15:15:22.506Z,-2.02
2023-01-30T15:18:07.196Z,-2.01
2023-01-30T15:20:42.389Z,-2.03
2023-01-30T15:23:09.535Z,-2.01
2023-01-30T15:26:00.465Z,-2.13
2023-01-30T15:28:58.355Z,-2.07
2023-01-30T15:31:26.099Z,-2.10
2023-01-30T15:33:56.804Z,-2.07
2023-01-30T15:36:30.185Z,-2.07
2023-01-30T15:39:06.357Z,-2.08
2023-01-30T15:41:40.544Z,-2.13
2023-01-30T15:44:35.821Z,-2.09
2023-01-30T15:47:25.530Z,-2.08
2023-01-30T15:50:03.454Z,-2.07
2023-01-30T15:52:40.153Z,-2.06
2023-01-30T15:55:15.670Z,-2.07
2023-01-30T15:57:48.732Z,-2.04
2023-01-30T16:00:29.086Z,-2.05
2023-01-30T16:02:58.279Z,-2.03
2023-01-30T16:05:26.848Z,-1.98
2023-01-30T16:07:56.383Z,-1.99
2023-01-30T16:10:29.744Z,-1.95
2023-01-30T16:13:02.514Z,-1.91
2023-01-30T16:15:46.643Z,-1.89
2023-01-30T16:18:16.488Z,-1.82
2023-01-30T16:21:00.731Z,-1.89
2023-01-30T16:23:42.384Z,-2.03
2023-01-30T16:26:18.037Z,-2.10
2023-01-30T16:28:45.442Z,-2.13
2023-01-30T16:31:12.854Z,-2.17
2023-01-30T16:33:39.931Z,-2.19
2023-01-30T16:36:27.348Z,-2.25
2023-01-30T16:38:55.451Z,-2.33
2023-01-30T16:41:39.523Z,-2.35
2023-01-30T16:44:27.199Z,-2.45
2023-01-30T16:47:00.337Z,-2.47
2023-01-30T16:49:36.009Z,-2.51
2023-01-30T16:52:30.523Z,-2.57
2023-01-30T16:55:03.147Z,-2.55
2023-01-30T16:57:45.748Z,-2.51
2023-01-30T17:00:23.609Z,-2.56
2023-01-30T17:02:55.870Z,-2.58
2023-01-30T17:05:26.380Z,-2.56
2023-01-30T17:07:56.004Z,-2.63
2023-01-30T17:10:41.589Z,-2.70
2023-01-30T17:13:34.885Z,-2.68
2023-01-30T17:16:22.789Z,-2.62
2023-01-30T17:18:54.721Z,-2.61
2023-01-30T17:21:23.877Z,-2.59
2023-01-30T17:23:55.026Z,-2.52
2023-01-30T17:26:22.053Z,-2.43
2023-01-30T17:28:49.403Z,-2.39
2023-01-30T17:31:18.607Z,-2.35
2023-01-30T17:33:46.128Z,-2.41
2023-01-30T17:36:23.022Z,-2.36
2023-01-30T17:38:51.964Z,-2.33
2023-01-30T17:41:24.522Z,-2.33
2023-01-30T17:43:51.842Z,-2.33
2023-01-30T17:46:22.928Z,-2.33
2023-01-30T17:48:51.891Z,-2.30
2023-01-30T17:51:18.967Z,-2.33
2023-01-30T17:53:46.257Z,-2.26
2023-01-30T17:56:22.088Z,-2.17
2023-01-30T17:58:50.968Z,-2.15
2023-01-30T18:01:19.192Z,-2.12
2023-01-30T18:03:46.573Z,-2.09
2023-01-30T18:06:15.344Z,-2.04
2023-01-30T18:08:42.677Z,-2.06
2023-01-30T18:11:12.034Z,-2.03
2023-01-30T18:13:40.006Z,-1.98
2023-01-30T18:16:07.355Z,-1.98
2023-01-30T18:18:34.675Z,-1.97
2023-01-30T18:21:01.663Z,-1.97
2023-01-30T18:23:28.831Z,-1.96
2023-01-30T18:25:55.856Z,-1.94
2023-01-30T18:28:23.041Z,-1.91
2023-01-30T18:30:50.147Z,-1.91
2023-01-30T18:33:17.481Z,-1.94
2023-01-30T18:35:44.392Z,-1.97
2023-01-30T18:38:11.700Z,-2.01
2023-01-30T18:40:39.950Z,-2.05
2023-01-30T18:43:07.109Z,-2.06
2023-01-30T18:45:34.068Z,-2.06
2023-01-30T18:48:01.305Z,-2.06
2023-01-30T18:50:28.284Z,-2.07
2023-01-30T18:52:55.500Z,-2.09
2023-01-30T18:55:25.472Z,-2.14
2023-01-30T18:57:52.775Z,-2.13
2023-01-30T19:00:21.591Z,-2.10
2023-01-30T19:02:53.941Z,-2.07
2023-01-30T19:05:21.087Z,-2.10
2023-01-30T19:07:48.321Z,-2.09
2023-01-30T19:10:17.774Z,-2.12
2023-01-30T19:13:04.333Z,-2.04
2023-01-30T19:15:31.426Z,-2.05
2023-01-30T19:17:58.774Z,-2.04
2023-01-30T19:20:26.632Z,-2.12
2023-01-30T19:22:55.052Z,-2.10
2023-01-30T19:25:22.324Z,-1.98
2023-01-30T19:27:49.574Z,-1.97
2023-01-30T19:30:16.944Z,-1.98
2023-01-30T19:32:44.461Z,-1.88
2023-01-30T19:35:11.387Z,-1.86
2023-01-30T19:37:39.407Z,-1.78
2023-01-30T19:40:09.549Z,-1.81
2023-01-30T19:42:40.217Z,-1.76
2023-01-30T19:45:10.069Z,-1.83
2023-01-30T19:47:37.499Z,-1.77
2023-01-30T19:50:04.897Z,-1.76
2023-01-30T19:52:32.022Z,-1.73
2023-01-30T19:54:58.942Z,-1.79
2023-01-30T19:57:26.246Z,-1.76
2023-01-30T19:59:53.168Z,-1.70
2023-01-30T20:02:20.387Z,-1.74
2023-01-30T20:04:47.347Z,-1.69
2023-01-30T20:07:14.544Z,-1.65
2023-01-30T20:09:41.472Z,-1.63
2023-01-30T20:12:08.750Z,-1.65
2023-01-30T20:14:35.682Z,-1.63
2023-01-30T20:17:02.976Z,-1.60
2023-01-30T20:19:29.941Z,-1.53
2023-01-30T20:21:57.199Z,-1.57
2023-01-30T20:24:24.163Z,-1.54
2023-01-30T20:26:51.526Z,-1.58
2023-01-30T20:29:18.521Z,-1.54
2023-01-30T20:31:45.920Z,-1.49
2023-01-30T20:34:14.648Z,-1.43
2023-01-30T20:36:41.854Z,-1.48
2023-01-30T20:39:08.886Z,-1.47
2023-01-30T20:41:37.897Z,-1.50
2023-01-30T20:44:07.472Z,-1.53
2023-01-30T20:46:43.738Z,-1.58
2023-01-30T20:49:17.173Z,-1.68
2023-01-30T20:51:45.126Z,-1.70
2023-01-30T20:54:14.180Z,-1.68
2023-01-30T20:56:43.924Z,-1.62
2023-01-30T20:59:13.199Z,-1.62
2023-01-30T21:01:40.994Z,-1.59
2023-01-30T21:04:10.682Z,-1.54
2023-01-30T21:06:43.519Z,-1.46
2023-01-30T21:09:21.630Z,-1.36
2023-01-30T21:11:51.178Z,-1.33
2023-01-30T21:14:18.487Z,-1.29
2023-01-30T21:16:46.565Z,-1.27
2023-01-30T21:19:16.599Z,-1.28
2023-01-30T21:21:54.252Z,-1.30
2023-01-30T21:24:26.733Z,-1.26
2023-01-30T21:26:55.249Z,-1.18
2023-01-30T21:29:24.684Z,-1.15
2023-01-30T21:31:52.790Z,-1.13
2023-01-30T21:34:19.902Z,-1.13
2023-01-30T21:37:07.062Z,-1.10
2023-01-30T21:39:52.687Z,-1.15
2023-01-30T21:42:39.005Z,-1.20
2023-01-30T21:45:06.963Z,-1.19
2023-01-30T21:47:34.229Z,-1.19
2023-01-30T21:50:01.270Z,-1.14
2023-01-30T21:52:32.031Z,-1.13
2023-01-30T21:54:59.075Z,-1.08
2023-01-30T21:57:26.355Z,-1.10
2023-01-30T21:59:53.323Z,-1.10
2023-01-30T22:02:20.590Z,-1.16
2023-01-30T22:04:47.507Z,-1.23
2023-01-30T22:07:14.776Z,-1.16
2023-01-30T22:09:41.673Z,-1.20
2023-01-30T22:12:10.835Z,-1.13
2023-01-30T22:14:37.750Z,-1.07
2023-01-30T22:17:05.015Z,-1.05
2023-01-30T22:19:35.803Z,-1.02
2023-01-30T22:22:03.914Z,-1.06
2023-01-30T22:24:30.847Z,-1.03
2023-01-30T22:26:58.077Z,-1.01
2023-01-30T22:29:25.004Z,-1.01
2023-01-30T22:31:52.341Z,-0.97
2023-01-30T22:34:19.479Z,-0.94
2023-01-30T22:36:47.996Z,-1.00
2023-01-30T22:39:15.000Z,-1.01
2023-01-30T22:41:42.282Z,-0.97
2023-01-30T22:44:10.145Z,-0.94
2023-01-30T22:46:39.711Z,-0.96
2023-01-30T22:49:08.403Z,-0.96
2023-01-30T22:51:40.686Z,-0.93
2023-01-30T22:54:12.144Z,-0.96
2023-01-30T22:56:41.460Z,-0.92
2023-01-30T22:59:09.572Z,-0.97
2023-01-30T23:01:50.728Z,-0.96
2023-01-30T23:04:20.518Z,-1.01
2023-01-30T23:06:49.171Z,-1.08
2023-01-30T23:09:22.211Z,-1.10
2023-01-30T23:12:11.370Z,-1.15
2023-01-30T23:14:39.234Z,-1.17
2023-01-30T23:17:26.026Z,-1.19
2023-01-30T23:19:54.120Z,-1.17
2023-01-30T23:22:21.411Z,-1.13
2023-01-30T23:24:48.853Z,-1.11
2023-01-30T23:27:16.076Z,-1.06
2023-01-30T23:29:43.139Z,-1.07
2023-01-30T23:32:10.434Z,-0.96
2023-01-30T23:34:37.750Z,-0.94
2023-01-30T23:37:04.967Z,-0.95
2023-01-30T23:39:31.951Z,-0.89
2023-01-30T23:41:59.113Z,-0.89
2023-01-30T23:44:26.008Z,-0.89
2023-01-30T23:46:53.210Z,-0.81
2023-01-30T23:49:20.212Z,-0.84
2023-01-30T23:51:47.454Z,-0.82
2023-01-30T23:54:14.442Z,-0.86
2023-01-30T23:56:43.533Z,-0.71
2023-01-30T23:59:11.280Z,-0.70
